Time;durP1;ratioP1;P1;durP2;ratioP2;P2;SDS_P1;SDS_P2;PMS_P1;PMS_P2;Temp;Humidity;BMP_temperature;BMP_pressure;BME280_temperature;BME280_humidity;BME280_pressure;Samples;Min_cycle;Max_cycle;Signal;HPM_P1;HPM_P2
2023/04/30 00:00:57;;;;;;;6.63;4.40;;;;;;;;;;5055268;28;20399;-74
2023/04/30 00:03:23;;;;;;;6.25;4.75;;;;;;;;;;5065022;28;20033;-74
2023/04/30 00:05:52;;;;;;;8.38;4.25;;;;;;;;;;5053626;28;20131;-74
2023/04/30 00:08:18;;;;;;;7.97;4.95;;;;;;;;;;5061287;28;20071;-74
2023/04/30 00:10:45;;;;;;;6.60;4.35;;;;;;;;;;5073572;28;20045;-74
2023/04/30 00:13:12;;;;;;;8.18;4.82;;;;;;;;;;5074934;28;20059;-74
2023/04/30 00:15:39;;;;;;;11.27;4.35;;;;;;;;;;5058412;28;20074;-75
2023/04/30 00:18:08;;;;;;;9.77;4.47;;;;;;;;;;5054817;28;20056;-74
2023/04/30 00:20:35;;;;;;;8.30;4.20;;;;;;;;;;5054308;28;20055;-74
2023/04/30 00:23:01;;;;;;;8.20;4.43;;;;;;;;;;5062176;28;20079;-74
2023/04/30 00:25:27;;;;;;;7.53;4.22;;;;;;;;;;5074432;28;20098;-74
2023/04/30 00:27:53;;;;;;;10.48;5.00;;;;;;;;;;5072921;28;20044;-74
2023/04/30 00:30:19;;;;;;;6.22;4.40;;;;;;;;;;5074562;28;20063;-74
2023/04/30 00:32:45;;;;;;;7.55;4.53;;;;;;;;;;5063043;28;20048;-75
2023/04/30 00:35:11;;;;;;;7.95;3.92;;;;;;;;;;5054555;28;20457;-74
2023/04/30 00:37:38;;;;;;;6.60;3.70;;;;;;;;;;5054304;28;20045;-74
2023/04/30 00:40:04;;;;;;;6.80;3.88;;;;;;;;;;5073300;28;20100;-74
2023/04/30 00:42:30;;;;;;;9.30;4.40;;;;;;;;;;5071711;28;20517;-75
2023/04/30 00:44:56;;;;;;;8.57;4.90;;;;;;;;;;5069551;28;20049;-75
2023/04/30 00:47:22;;;;;;;11.90;4.55;;;;;;;;;;5038414;28;20049;-75
2023/04/30 00:49:48;;;;;;;7.38;3.70;;;;;;;;;;5052899;28;20491;-75
2023/04/30 00:52:14;;;;;;;11.43;4.45;;;;;;;;;;5057366;28;20419;-75
2023/04/30 00:54:40;;;;;;;11.30;4.78;;;;;;;;;;5057132;28;20518;-75
2023/04/30 00:57:09;;;;;;;10.43;4.57;;;;;;;;;;5057415;28;20040;-74
2023/04/30 00:59:35;;;;;;;7.25;4.10;;;;;;;;;;5058344;28;20044;-73
2023/04/30 01:02:02;;;;;;;9.75;4.60;;;;;;;;;;5055272;28;20048;-73
2023/04/30 01:04:28;;;;;;;7.05;4.03;;;;;;;;;;5071081;28;20503;-73
2023/04/30 01:06:55;;;;;;;10.73;4.65;;;;;;;;;;5060316;28;20041;-73
2023/04/30 01:09:21;;;;;;;9.15;4.90;;;;;;;;;;5048657;28;20668;-73
2023/04/30 01:11:52;;;;;;;10.30;4.28;;;;;;;;;;5055870;28;20044;-74
2023/04/30 01:14:24;;;;;;;9.82;4.53;;;;;;;;;;5063034;28;20055;-74
2023/04/30 01:16:54;;;;;;;11.27;4.80;;;;;;;;;;5052446;28;20491;-74
2023/04/30 01:19:29;;;;;;;6.50;4.00;;;;;;;;;;5052573;28;20053;-73
2023/04/30 01:21:57;;;;;;;7.75;4.25;;;;;;;;;;5053748;28;20048;-74
2023/04/30 01:24:26;;;;;;;5.53;4.05;;;;;;;;;;5035836;28;20048;-74
2023/04/30 01:26:58;;;;;;;8.05;4.50;;;;;;;;;;5063232;28;20542;-74
2023/04/30 01:29:24;;;;;;;8.27;4.40;;;;;;;;;;5052747;28;20053;-74
2023/04/30 01:31:50;;;;;;;7.13;4.10;;;;;;;;;;5054096;28;20037;-74
2023/04/30 01:34:16;;;;;;;7.25;4.28;;;;;;;;;;5053944;28;20037;-74
2023/04/30 01:36:53;;;;;;;5.80;3.75;;;;;;;;;;5054370;28;20045;-74
2023/04/30 01:39:38;;;;;;;7.43;4.32;;;;;;;;;;5060542;28;20047;-74
2023/04/30 01:42:20;;;;;;;5.57;3.92;;;;;;;;;;5073080;28;20036;-74
2023/04/30 01:44:56;;;;;;;10.90;4.10;;;;;;;;;;5058512;28;20044;-74
2023/04/30 01:47:25;;;;;;;8.40;4.28;;;;;;;;;;5070881;28;20056;-73
2023/04/30 01:49:57;;;;;;;5.88;3.58;;;;;;;;;;5073757;28;20056;-74
2023/04/30 01:52:56;;;;;;;6.65;4.47;;;;;;;;;;5073987;28;20072;-73
2023/04/30 01:55:22;;;;;;;7.03;3.92;;;;;;;;;;5046276;28;20053;-73
2023/04/30 01:57:54;;;;;;;7.53;3.40;;;;;;;;;;5061382;28;20487;-73
2023/04/30 02:00:20;;;;;;;7.53;3.83;;;;;;;;;;5059243;28;20368;-73
2023/04/30 02:02:46;;;;;;;8.05;3.92;;;;;;;;;;5079212;28;20044;-74
2023/04/30 02:05:12;;;;;;;5.25;3.70;;;;;;;;;;5079858;28;20525;-74
2023/04/30 02:07:47;;;;;;;6.47;4.10;;;;;;;;;;5069983;28;20367;-74
2023/04/30 02:10:13;;;;;;;7.90;4.13;;;;;;;;;;5057425;28;20052;-74
2023/04/30 02:12:39;;;;;;;5.80;3.60;;;;;;;;;;5057310;28;20037;-74
2023/04/30 02:15:06;;;;;;;7.40;3.95;;;;;;;;;;5085332;28;20044;-74
2023/04/30 02:17:32;;;;;;;7.32;4.10;;;;;;;;;;5083982;28;20055;-74
2023/04/30 02:19:59;;;;;;;7.45;4.00;;;;;;;;;;5072465;28;20056;-74
2023/04/30 02:22:25;;;;;;;8.52;4.22;;;;;;;;;;5057155;28;20055;-74
2023/04/30 02:24:54;;;;;;;7.30;4.18;;;;;;;;;;5057171;28;20043;-74
2023/04/30 02:27:20;;;;;;;7.30;4.35;;;;;;;;;;5056956;28;20179;-74
2023/04/30 02:29:46;;;;;;;6.82;4.25;;;;;;;;;;5057102;28;20084;-74
2023/04/30 02:32:13;;;;;;;7.43;4.15;;;;;;;;;;5068981;28;20045;-74
2023/04/30 02:34:39;;;;;;;7.75;4.10;;;;;;;;;;5062127;28;20048;-75
2023/04/30 02:37:06;;;;;;;6.50;3.80;;;;;;;;;;5056683;28;20077;-75
2023/04/30 02:39:32;;;;;;;7.13;4.25;;;;;;;;;;5056830;28;20048;-74
2023/04/30 02:41:58;;;;;;;7.07;4.18;;;;;;;;;;5056524;28;20045;-75
2023/04/30 02:44:24;;;;;;;7.45;4.30;;;;;;;;;;5057090;28;20106;-75
2023/04/30 02:46:50;;;;;;;6.93;4.22;;;;;;;;;;5055373;28;20127;-75
2023/04/30 02:49:16;;;;;;;11.07;4.57;;;;;;;;;;5058822;28;20048;-74
2023/04/30 02:51:42;;;;;;;10.30;5.00;;;;;;;;;;5075742;28;20051;-75
2023/04/30 02:54:08;;;;;;;10.70;5.15;;;;;;;;;;5055295;28;20045;-75
2023/04/30 02:56:34;;;;;;;8.50;4.80;;;;;;;;;;5059416;28;20109;-75
2023/04/30 02:59:01;;;;;;;9.48;4.28;;;;;;;;;;5071565;28;20045;-75
2023/04/30 03:01:27;;;;;;;9.00;4.53;;;;;;;;;;5056188;28;20041;-75
2023/04/30 03:03:53;;;;;;;11.25;4.70;;;;;;;;;;5073160;28;20120;-75
2023/04/30 03:06:19;;;;;;;7.05;4.18;;;;;;;;;;5074804;28;20045;-75
2023/04/30 03:08:45;;;;;;;8.30;4.25;;;;;;;;;;5055256;28;20081;-74
2023/04/30 03:11:11;;;;;;;8.70;4.10;;;;;;;;;;5055774;28;20048;-73
2023/04/30 03:13:37;;;;;;;6.32;4.05;;;;;;;;;;5059041;28;20040;-73
2023/04/30 03:16:03;;;;;;;7.40;3.90;;;;;;;;;;5069458;28;20095;-73
2023/04/30 03:18:29;;;;;;;7.07;4.47;;;;;;;;;;5056772;28;20049;-73
2023/04/30 03:20:56;;;;;;;7.18;4.30;;;;;;;;;;5059977;28;20045;-74
2023/04/30 03:23:22;;;;;;;5.82;3.95;;;;;;;;;;5054314;28;20123;-74
2023/04/30 03:25:49;;;;;;;6.45;3.92;;;;;;;;;;5075248;28;20051;-74
2023/04/30 03:28:15;;;;;;;7.15;3.97;;;;;;;;;;5074705;28;20055;-74
2023/04/30 03:30:41;;;;;;;8.98;3.95;;;;;;;;;;5074792;28;20053;-74
2023/04/30 03:33:07;;;;;;;7.60;3.92;;;;;;;;;;5075660;28;20123;-74
2023/04/30 03:35:34;;;;;;;7.80;3.55;;;;;;;;;;5075501;28;20044;-73
2023/04/30 03:38:00;;;;;;;6.97;4.35;;;;;;;;;;5054331;28;20045;-74
2023/04/30 03:40:27;;;;;;;9.38;4.35;;;;;;;;;;5054412;28;20052;-74
2023/04/30 03:42:53;;;;;;;7.57;3.75;;;;;;;;;;5061622;28;20045;-74
2023/04/30 03:45:19;;;;;;;7.93;3.78;;;;;;;;;;5044394;28;20045;-74
2023/04/30 03:47:45;;;;;;;6.13;3.63;;;;;;;;;;5055982;28;20421;-74
2023/04/30 03:50:11;;;;;;;5.63;3.15;;;;;;;;;;5068195;28;20052;-74
2023/04/30 03:52:37;;;;;;;7.00;4.05;;;;;;;;;;5072101;28;20052;-74
2023/04/30 03:55:04;;;;;;;6.90;3.20;;;;;;;;;;5054059;28;20462;-74
2023/04/30 03:57:30;;;;;;;5.63;3.90;;;;;;;;;;5055550;28;20041;-73
2023/04/30 03:59:56;;;;;;;6.78;3.67;;;;;;;;;;5068439;28;20044;-73
2023/04/30 04:02:22;;;;;;;10.07;3.60;;;;;;;;;;5075204;28;20487;-73
2023/04/30 04:04:48;;;;;;;7.15;3.75;;;;;;;;;;5059487;28;20048;-73
2023/04/30 04:07:15;;;;;;;8.13;4.00;;;;;;;;;;5054704;28;20530;-73
2023/04/30 04:09:41;;;;;;;9.80;3.92;;;;;;;;;;5041813;28;20041;-73
2023/04/30 04:12:07;;;;;;;8.45;4.20;;;;;;;;;;5053761;28;20049;-73
2023/04/30 04:14:33;;;;;;;8.32;4.03;;;;;;;;;;5063269;28;20033;-74
2023/04/30 04:16:59;;;;;;;8.43;4.20;;;;;;;;;;5073123;28;20115;-74
2023/04/30 04:19:28;;;;;;;14.07;5.20;;;;;;;;;;5056814;28;20056;-74
2023/04/30 04:21:54;;;;;;;9.88;4.20;;;;;;;;;;5072108;28;20076;-74
2023/04/30 04:24:20;;;;;;;8.25;4.13;;;;;;;;;;5053671;28;20475;-74
2023/04/30 04:26:46;;;;;;;6.80;4.20;;;;;;;;;;5053391;28;20136;-74
2023/04/30 04:29:12;;;;;;;7.78;4.53;;;;;;;;;;5056987;28;20048;-74
2023/04/30 04:31:41;;;;;;;7.38;4.30;;;;;;;;;;5073153;28;20044;-74
2023/04/30 04:34:07;;;;;;;7.90;4.00;;;;;;;;;;5056316;28;20048;-74
2023/04/30 04:36:33;;;;;;;5.45;3.80;;;;;;;;;;5072958;28;20048;-74
2023/04/30 04:39:02;;;;;;;8.98;4.15;;;;;;;;;;5056274;28;20403;-74
2023/04/30 04:41:32;;;;;;;6.68;3.90;;;;;;;;;;5053364;28;20052;-74
2023/04/30 04:44:02;;;;;;;8.85;4.05;;;;;;;;;;5054786;28;20088;-74
2023/04/30 04:46:28;;;;;;;11.13;4.00;;;;;;;;;;5054520;28;20079;-75
2023/04/30 04:48:54;;;;;;;6.97;3.75;;;;;;;;;;5054558;28;20040;-75
2023/04/30 04:51:20;;;;;;;8.00;4.43;;;;;;;;;;5071277;28;20076;-75
2023/04/30 04:53:47;;;;;;;9.25;3.70;;;;;;;;;;5073719;28;20039;-75
2023/04/30 04:56:13;;;;;;;8.55;3.80;;;;;;;;;;5073064;28;20406;-75
2023/04/30 04:58:39;;;;;;;5.88;3.60;;;;;;;;;;5055903;28;20052;-74
2023/04/30 05:01:05;;;;;;;5.72;3.10;;;;;;;;;;5054198;28;20049;-74
2023/04/30 05:03:32;;;;;;;8.75;3.60;;;;;;;;;;5054296;28;20120;-74
2023/04/30 05:05:58;;;;;;;7.53;3.05;;;;;;;;;;5056584;28;20072;-74
2023/04/30 05:08:24;;;;;;;6.78;3.67;;;;;;;;;;5070656;28;20041;-75
2023/04/30 05:10:50;;;;;;;8.55;3.65;;;;;;;;;;5073900;28;20041;-74
2023/04/30 05:13:16;;;;;;;7.22;3.47;;;;;;;;;;5074319;28;20197;-74
2023/04/30 05:15:42;;;;;;;6.60;3.45;;;;;;;;;;5066124;28;20485;-74
2023/04/30 05:18:08;;;;;;;6.78;3.35;;;;;;;;;;5058371;28;20051;-74
2023/04/30 05:20:34;;;;;;;10.60;4.00;;;;;;;;;;5053953;28;20053;-74
2023/04/30 05:23:00;;;;;;;7.95;3.80;;;;;;;;;;5054761;28;20112;-75
2023/04/30 05:25:26;;;;;;;7.78;3.85;;;;;;;;;;5056820;28;20073;-74
2023/04/30 05:27:52;;;;;;;5.93;3.97;;;;;;;;;;5058001;28;20052;-74
2023/04/30 05:30:18;;;;;;;7.35;3.65;;;;;;;;;;5067423;28;20052;-75
2023/04/30 05:32:49;;;;;;;8.73;4.20;;;;;;;;;;5056658;28;20120;-74
2023/04/30 05:35:16;;;;;;;11.27;4.68;;;;;;;;;;5072331;28;20149;-74
2023/04/30 05:37:42;;;;;;;7.13;4.15;;;;;;;;;;5072051;28;20047;-74
2023/04/30 05:40:08;;;;;;;13.20;4.63;;;;;;;;;;5073457;28;20047;-74
2023/04/30 05:42:35;;;;;;;11.10;4.65;;;;;;;;;;5052824;28;20049;-74
2023/04/30 05:45:01;;;;;;;9.20;4.10;;;;;;;;;;5053390;28;20045;-74
2023/04/30 05:47:28;;;;;;;10.50;4.15;;;;;;;;;;5068857;28;20052;-75
2023/04/30 05:49:54;;;;;;;8.90;4.13;;;;;;;;;;5053285;28;20041;-74
2023/04/30 05:52:20;;;;;;;10.82;4.40;;;;;;;;;;5058923;28;20048;-74
2023/04/30 05:54:47;;;;;;;8.60;4.47;;;;;;;;;;5073302;28;20509;-75
2023/04/30 05:57:13;;;;;;;11.25;4.20;;;;;;;;;;5066060;28;20049;-75
2023/04/30 05:59:39;;;;;;;7.43;4.60;;;;;;;;;;5057116;28;20047;-75
2023/04/30 06:02:06;;;;;;;8.15;4.32;;;;;;;;;;5063379;28;20123;-76
2023/04/30 06:04:32;;;;;;;10.85;4.18;;;;;;;;;;5055258;28;20044;-75
2023/04/30 06:06:58;;;;;;;7.40;3.55;;;;;;;;;;5066012;28;20090;-75
2023/04/30 06:09:24;;;;;;;9.93;4.03;;;;;;;;;;5045114;28;20049;-74
2023/04/30 06:11:50;;;;;;;7.47;3.75;;;;;;;;;;5052931;28;20041;-75
2023/04/30 06:14:17;;;;;;;12.25;4.40;;;;;;;;;;5067134;28;20080;-75
2023/04/30 06:16:44;;;;;;;7.80;3.97;;;;;;;;;;5051926;28;20059;-74
2023/04/30 06:19:10;;;;;;;7.85;4.07;;;;;;;;;;5053135;28;20049;-75
2023/04/30 06:21:36;;;;;;;8.63;4.18;;;;;;;;;;5061765;28;20364;-74
2023/04/30 06:24:02;;;;;;;9.02;4.30;;;;;;;;;;5053501;28;20444;-77
2023/04/30 06:26:28;;;;;;;12.05;4.40;;;;;;;;;;5058397;28;20041;-75
2023/04/30 06:28:54;;;;;;;7.85;4.10;;;;;;;;;;5061167;28;20041;-75
2023/04/30 06:31:21;;;;;;;12.50;4.38;;;;;;;;;;5071437;28;20056;-74
2023/04/30 06:33:47;;;;;;;7.70;3.63;;;;;;;;;;5065904;28;20084;-75
2023/04/30 06:36:13;;;;;;;8.50;3.88;;;;;;;;;;5053796;28;20125;-75
2023/04/30 06:38:40;;;;;;;7.88;3.75;;;;;;;;;;5051857;28;20163;-75
2023/04/30 06:41:06;;;;;;;10.02;4.05;;;;;;;;;;5059163;28;22485;-74
2023/04/30 06:43:32;;;;;;;8.70;3.90;;;;;;;;;;5060143;28;20045;-74
2023/04/30 06:45:58;;;;;;;7.70;3.83;;;;;;;;;;5056749;28;20044;-74
2023/04/30 06:48:24;;;;;;;14.45;4.57;;;;;;;;;;5058451;28;20056;-74
2023/04/30 06:50:50;;;;;;;7.78;4.13;;;;;;;;;;5075629;28;20040;-74
2023/04/30 06:53:16;;;;;;;10.57;4.32;;;;;;;;;;5063878;28;20118;-75
2023/04/30 06:55:44;;;;;;;8.88;3.47;;;;;;;;;;5055785;28;20084;-75
2023/04/30 06:58:10;;;;;;;7.25;3.72;;;;;;;;;;5059928;28;20043;-75
2023/04/30 07:00:36;;;;;;;7.18;3.67;;;;;;;;;;5073092;28;20044;-77
2023/04/30 07:03:03;;;;;;;9.07;3.92;;;;;;;;;;5073249;28;20779;-75
2023/04/30 07:05:30;;;;;;;10.50;4.05;;;;;;;;;;5064081;28;20116;-76
2023/04/30 07:07:56;;;;;;;8.30;4.40;;;;;;;;;;5057342;28;20374;-76
2023/04/30 07:10:22;;;;;;;7.82;3.53;;;;;;;;;;5056100;28;20052;-76
2023/04/30 07:12:48;;;;;;;8.43;3.55;;;;;;;;;;5055861;28;20122;-76
2023/04/30 07:15:14;;;;;;;6.05;3.42;;;;;;;;;;5056427;28;20118;-76
2023/04/30 07:17:40;;;;;;;8.10;3.80;;;;;;;;;;5046893;28;20052;-76
2023/04/30 07:20:07;;;;;;;9.52;3.47;;;;;;;;;;5059463;28;20059;-75
2023/04/30 07:22:34;;;;;;;8.25;3.67;;;;;;;;;;5063336;28;20081;-76
2023/04/30 07:25:00;;;;;;;7.13;3.75;;;;;;;;;;5055846;28;20124;-76
2023/04/30 07:27:27;;;;;;;11.07;4.22;;;;;;;;;;5056739;28;20076;-77
2023/04/30 07:29:53;;;;;;;7.43;3.90;;;;;;;;;;5064071;28;20113;-80
2023/04/30 07:32:19;;;;;;;7.95;3.50;;;;;;;;;;5050355;28;20045;-76
2023/04/30 07:34:45;;;;;;;9.98;4.20;;;;;;;;;;5065391;28;20043;-76
2023/04/30 07:37:12;;;;;;;7.55;3.40;;;;;;;;;;5075879;28;20036;-76
2023/04/30 07:39:38;;;;;;;12.57;4.43;;;;;;;;;;5072033;28;20052;-76
2023/04/30 07:42:05;;;;;;;9.52;3.80;;;;;;;;;;5055069;28;20060;-76
2023/04/30 07:44:31;;;;;;;7.85;3.47;;;;;;;;;;5055694;28;20037;-76
2023/04/30 07:46:57;;;;;;;9.13;3.85;;;;;;;;;;5055274;28;20044;-76
2023/04/30 07:49:23;;;;;;;10.60;3.63;;;;;;;;;;5055580;28;20124;-76
2023/04/30 07:51:49;;;;;;;8.00;3.42;;;;;;;;;;5054707;28;20048;-77
2023/04/30 07:54:15;;;;;;;7.07;3.70;;;;;;;;;;5055715;28;20467;-77
2023/04/30 07:56:42;;;;;;;10.38;3.60;;;;;;;;;;5054998;28;20045;-78
2023/04/30 07:59:08;;;;;;;9.30;3.90;;;;;;;;;;5054798;28;20106;-77
2023/04/30 08:01:34;;;;;;;13.23;3.40;;;;;;;;;;5053984;28;20037;-77
2023/04/30 08:04:00;;;;;;;10.80;3.67;;;;;;;;;;5055658;28;20045;-77
2023/04/30 08:06:27;;;;;;;7.88;3.88;;;;;;;;;;5056369;28;20521;-77
2023/04/30 08:08:53;;;;;;;9.82;3.63;;;;;;;;;;5068223;28;20079;-77
2023/04/30 08:11:20;;;;;;;8.77;3.60;;;;;;;;;;5074930;28;20083;-77
2023/04/30 08:13:46;;;;;;;12.70;3.90;;;;;;;;;;5074905;28;20136;-77
2023/04/30 08:16:12;;;;;;;7.40;3.53;;;;;;;;;;5074858;28;20051;-77
2023/04/30 08:18:42;;;;;;;10.60;3.47;;;;;;;;;;5074648;28;20055;-77
2023/04/30 08:21:09;;;;;;;8.85;3.30;;;;;;;;;;5055446;28;20056;-77
2023/04/30 08:23:35;;;;;;;9.23;3.80;;;;;;;;;;5054790;28;20048;-77
2023/04/30 08:26:01;;;;;;;8.95;3.60;;;;;;;;;;5072937;28;20383;-77
2023/04/30 08:28:27;;;;;;;10.68;4.13;;;;;;;;;;5075291;28;20033;-76
2023/04/30 08:30:53;;;;;;;8.77;4.15;;;;;;;;;;5062140;28;20512;-76
2023/04/30 08:33:19;;;;;;;8.77;4.00;;;;;;;;;;5057300;28;20499;-76
2023/04/30 08:35:45;;;;;;;11.77;4.38;;;;;;;;;;5056677;28;20041;-76
2023/04/30 08:38:11;;;;;;;9.18;3.75;;;;;;;;;;5055806;28;20045;-76
2023/04/30 08:40:37;;;;;;;6.93;4.15;;;;;;;;;;5054405;28;20467;-76
2023/04/30 08:43:07;;;;;;;7.78;4.05;;;;;;;;;;5054050;28;20053;-76
2023/04/30 08:45:33;;;;;;;9.13;3.85;;;;;;;;;;5054662;28;20044;-76
2023/04/30 08:48:00;;;;;;;6.25;3.70;;;;;;;;;;5055848;28;20044;-77
2023/04/30 08:50:27;;;;;;;10.38;3.83;;;;;;;;;;5054507;28;20053;-77
2023/04/30 08:52:53;;;;;;;9.32;4.20;;;;;;;;;;5055505;28;20040;-77
2023/04/30 08:55:19;;;;;;;10.60;4.32;;;;;;;;;;5073538;28;20078;-77
2023/04/30 08:57:45;;;;;;;12.18;4.25;;;;;;;;;;5070958;28;20052;-77
2023/04/30 09:00:12;;;;;;;6.82;3.80;;;;;;;;;;5071742;28;20589;-77
2023/04/30 09:02:41;;;;;;;8.57;3.80;;;;;;;;;;5072421;28;20124;-77
2023/04/30 09:05:11;;;;;;;10.73;4.00;;;;;;;;;;5075242;28;20101;-77
2023/04/30 09:07:40;;;;;;;6.22;3.92;;;;;;;;;;5064083;28;20041;-79
2023/04/30 09:10:14;;;;;;;8.93;3.80;;;;;;;;;;5060519;28;20041;-76
2023/04/30 09:12:43;;;;;;;7.03;4.10;;;;;;;;;;5072980;28;20044;-76
2023/04/30 09:15:09;;;;;;;9.00;3.60;;;;;;;;;;5070864;28;20090;-75
2023/04/30 09:17:35;;;;;;;8.95;3.83;;;;;;;;;;5073514;28;20048;-76
2023/04/30 09:20:09;;;;;;;8.20;3.97;;;;;;;;;;5072045;28;20044;-75
2023/04/30 09:22:36;;;;;;;11.63;3.95;;;;;;;;;;5065260;28;20449;-75
2023/04/30 09:25:02;;;;;;;9.82;4.22;;;;;;;;;;5073701;28;20053;-75
2023/04/30 09:27:28;;;;;;;7.60;4.05;;;;;;;;;;5073991;28;20079;-75
2023/04/30 09:29:55;;;;;;;5.45;4.13;;;;;;;;;;5073855;28;20036;-75
2023/04/30 09:32:21;;;;;;;8.27;4.07;;;;;;;;;;5074066;28;20106;-76
2023/04/30 09:34:47;;;;;;;8.43;4.03;;;;;;;;;;5063991;28;20112;-75
2023/04/30 09:37:14;;;;;;;8.48;4.95;;;;;;;;;;5067458;28;20049;-75
2023/04/30 09:39:50;;;;;;;11.48;3.75;;;;;;;;;;5064423;28;20052;-75
2023/04/30 09:42:18;;;;;;;10.95;4.45;;;;;;;;;;5061369;28;20037;-76
2023/04/30 09:44:44;;;;;;;8.57;3.63;;;;;;;;;;5071719;28;20053;-76
2023/04/30 09:47:18;;;;;;;7.78;3.20;;;;;;;;;;5063682;28;20478;-77
2023/04/30 09:49:47;;;;;;;9.13;3.80;;;;;;;;;;5069818;28;20083;-76
2023/04/30 09:52:15;;;;;;;7.97;4.05;;;;;;;;;;5073638;28;20120;-77
2023/04/30 09:54:41;;;;;;;8.90;3.80;;;;;;;;;;5056499;28;20056;-77
2023/04/30 09:57:09;;;;;;;6.68;3.72;;;;;;;;;;5062153;28;20093;-75
2023/04/30 09:59:38;;;;;;;6.50;3.60;;;;;;;;;;5059815;28;20045;-76
2023/04/30 10:02:08;;;;;;;5.90;3.80;;;;;;;;;;5062862;28;20048;-75
2023/04/30 10:04:35;;;;;;;6.22;3.17;;;;;;;;;;5056554;28;20202;-75
2023/04/30 10:07:18;;;;;;;8.93;4.28;;;;;;;;;;5057112;28;20088;-75
2023/04/30 10:09:48;;;;;;;8.40;3.60;;;;;;;;;;5060572;28;20494;-75
2023/04/30 10:12:15;;;;;;;8.82;3.92;;;;;;;;;;5059710;28;20056;-75
2023/04/30 10:14:48;;;;;;;7.18;4.00;;;;;;;;;;5075408;28;20053;-75
2023/04/30 10:17:16;;;;;;;5.15;3.70;;;;;;;;;;5074853;28;20048;-74
2023/04/30 10:19:45;;;;;;;7.45;3.72;;;;;;;;;;5063475;28;20056;-74
2023/04/30 10:22:11;;;;;;;8.15;3.60;;;;;;;;;;5072624;28;20044;-75
2023/04/30 10:24:37;;;;;;;9.82;3.60;;;;;;;;;;5067752;28;20483;-75
2023/04/30 10:27:03;;;;;;;7.78;3.58;;;;;;;;;;5065463;28;20202;-75
2023/04/30 10:29:29;;;;;;;6.13;3.67;;;;;;;;;;5072533;28;20145;-75
2023/04/30 10:31:56;;;;;;;10.57;3.90;;;;;;;;;;5071322;28;20108;-75
2023/04/30 10:34:34;;;;;;;6.70;3.55;;;;;;;;;;5056082;28;20033;-75
2023/04/30 10:37:03;;;;;;;6.35;3.38;;;;;;;;;;5067787;28;20123;-75
2023/04/30 10:39:30;;;;;;;8.75;3.50;;;;;;;;;;5057481;28;20048;-76
2023/04/30 10:42:03;;;;;;;8.10;4.03;;;;;;;;;;5057635;28;20506;-75
2023/04/30 10:44:32;;;;;;;6.22;3.67;;;;;;;;;;5060246;28;20135;-74
2023/04/30 10:46:59;;;;;;;6.18;3.83;;;;;;;;;;5061046;28;20051;-74
2023/04/30 10:49:26;;;;;;;8.70;4.13;;;;;;;;;;5063002;28;20053;-74
2023/04/30 10:51:57;;;;;;;6.38;3.90;;;;;;;;;;5063312;28;20127;-75
2023/04/30 10:54:29;;;;;;;7.00;3.88;;;;;;;;;;5074587;28;20040;-75
2023/04/30 10:57:10;;;;;;;7.25;3.95;;;;;;;;;;5068228;28;20044;-76
2023/04/30 10:59:36;;;;;;;8.55;3.85;;;;;;;;;;5064651;28;20479;-75
2023/04/30 11:02:02;;;;;;;8.52;3.90;;;;;;;;;;5067979;28;20048;-75
2023/04/30 11:04:28;;;;;;;8.02;3.83;;;;;;;;;;5061458;28;20037;-75
2023/04/30 11:06:56;;;;;;;5.05;3.22;;;;;;;;;;5073994;28;20036;-75
2023/04/30 11:09:37;;;;;;;5.22;3.60;;;;;;;;;;5074793;28;20529;-75
2023/04/30 11:12:09;;;;;;;9.10;3.65;;;;;;;;;;5075979;28;20049;-75
2023/04/30 11:14:39;;;;;;;7.00;3.60;;;;;;;;;;5065188;28;20573;-75
2023/04/30 11:17:05;;;;;;;8.73;3.60;;;;;;;;;;5063623;28;20068;-76
2023/04/30 11:19:33;;;;;;;8.70;3.78;;;;;;;;;;5064407;28;20080;-76
2023/04/30 11:22:05;;;;;;;5.72;3.20;;;;;;;;;;5075922;28;20082;-76
2023/04/30 11:24:50;;;;;;;8.40;3.33;;;;;;;;;;5074653;28;20048;-76
2023/04/30 11:27:21;;;;;;;6.88;3.03;;;;;;;;;;5073015;28;20079;-76
2023/04/30 11:29:47;;;;;;;5.85;3.08;;;;;;;;;;5075922;28;20044;-76
2023/04/30 11:32:13;;;;;;;6.82;3.20;;;;;;;;;;5074877;28;20058;-76
2023/04/30 11:34:40;;;;;;;5.88;3.30;;;;;;;;;;5074372;28;20044;-76
2023/04/30 11:37:06;;;;;;;5.13;2.90;;;;;;;;;;5073810;28;20044;-76
2023/04/30 11:39:35;;;;;;;5.00;3.20;;;;;;;;;;5079903;28;20051;-76
2023/04/30 11:42:02;;;;;;;6.28;3.08;;;;;;;;;;5064687;28;20044;-76
2023/04/30 11:44:28;;;;;;;5.05;2.70;;;;;;;;;;5075728;28;20040;-77
2023/04/30 11:46:54;;;;;;;2.97;2.60;;;;;;;;;;5067943;28;20406;-77
2023/04/30 11:49:20;;;;;;;3.75;2.60;;;;;;;;;;5070655;28;20153;-77
2023/04/30 11:51:50;;;;;;;5.10;2.78;;;;;;;;;;5073852;28;20037;-77
2023/04/30 11:54:17;;;;;;;6.03;3.20;;;;;;;;;;5071371;28;20053;-75
2023/04/30 11:56:50;;;;;;;5.40;3.10;;;;;;;;;;5069871;28;20118;-77
2023/04/30 11:59:16;;;;;;;3.28;2.47;;;;;;;;;;5067316;28;20048;-76
2023/04/30 12:01:43;;;;;;;3.25;2.20;;;;;;;;;;5075947;28;20040;-77
2023/04/30 12:04:09;;;;;;;6.75;2.72;;;;;;;;;;5075581;28;20076;-76
2023/04/30 12:06:35;;;;;;;4.90;2.25;;;;;;;;;;5064050;28;20402;-76
2023/04/30 12:09:08;;;;;;;5.53;3.08;;;;;;;;;;5075070;28;20041;-76
2023/04/30 12:11:35;;;;;;;4.32;2.50;;;;;;;;;;5066872;28;20098;-76
2023/04/30 12:14:02;;;;;;;5.45;3.03;;;;;;;;;;5061900;28;20079;-75
2023/04/30 12:16:29;;;;;;;4.65;3.00;;;;;;;;;;5064237;28;20050;-76
2023/04/30 12:18:55;;;;;;;5.43;2.65;;;;;;;;;;5074064;28;20056;-77
2023/04/30 12:21:21;;;;;;;4.13;2.47;;;;;;;;;;5065406;28;20048;-76
2023/04/30 12:23:47;;;;;;;4.25;2.60;;;;;;;;;;5057522;28;20045;-76
2023/04/30 12:26:13;;;;;;;5.38;3.20;;;;;;;;;;5074452;28;20119;-76
2023/04/30 12:28:40;;;;;;;29.42;8.35;;;;;;;;;;5073631;28;20040;-76
2023/04/30 12:31:06;;;;;;;6.30;2.63;;;;;;;;;;5075014;28;20044;-76
2023/04/30 12:33:32;;;;;;;4.30;2.80;;;;;;;;;;5072363;28;20040;-76
2023/04/30 12:35:58;;;;;;;4.15;2.80;;;;;;;;;;5074438;28;20520;-76
2023/04/30 12:38:24;;;;;;;5.63;2.70;;;;;;;;;;5071637;28;20400;-76
2023/04/30 12:40:50;;;;;;;5.40;3.15;;;;;;;;;;5074537;28;20048;-76
2023/04/30 12:43:17;;;;;;;4.53;2.63;;;;;;;;;;5059517;28;20097;-76
2023/04/30 12:45:49;;;;;;;4.10;2.80;;;;;;;;;;5064588;28;20044;-75
2023/04/30 12:48:16;;;;;;;5.07;2.60;;;;;;;;;;5061427;28;20410;-76
2023/04/30 12:50:42;;;;;;;4.25;2.63;;;;;;;;;;5075003;28;20081;-75
2023/04/30 12:53:08;;;;;;;6.60;2.95;;;;;;;;;;5071293;28;20083;-76
2023/04/30 12:55:36;;;;;;;5.15;2.85;;;;;;;;;;5066593;28;20072;-75
2023/04/30 12:58:21;;;;;;;5.55;3.22;;;;;;;;;;5071704;28;20113;-76
2023/04/30 13:00:50;;;;;;;4.75;2.75;;;;;;;;;;5073977;28;20041;-76
2023/04/30 13:03:17;;;;;;;5.88;2.78;;;;;;;;;;5056530;28;20045;-76
2023/04/30 13:05:48;;;;;;;5.32;2.72;;;;;;;;;;5067704;28;20051;-76
2023/04/30 13:08:14;;;;;;;3.97;3.03;;;;;;;;;;5060064;28;20055;-76
2023/04/30 13:10:40;;;;;;;4.75;2.90;;;;;;;;;;5064387;28;20049;-75
2023/04/30 13:13:06;;;;;;;5.97;3.40;;;;;;;;;;5073034;28;20041;-76
2023/04/30 13:15:33;;;;;;;4.85;2.90;;;;;;;;;;5073957;28;20047;-76
2023/04/30 13:17:59;;;;;;;3.40;2.70;;;;;;;;;;5070642;28;20036;-76
2023/04/30 13:20:25;;;;;;;6.00;2.80;;;;;;;;;;5064673;28;20057;-76
2023/04/30 13:22:51;;;;;;;4.47;2.90;;;;;;;;;;5069232;28;20045;-76
2023/04/30 13:25:17;;;;;;;4.45;2.70;;;;;;;;;;5069364;28;20072;-75
2023/04/30 13:27:43;;;;;;;4.80;3.00;;;;;;;;;;5083236;28;20068;-75
2023/04/30 13:30:10;;;;;;;5.65;2.92;;;;;;;;;;5067375;28;20044;-75
2023/04/30 13:32:36;;;;;;;4.47;2.72;;;;;;;;;;5053361;28;20406;-75
2023/04/30 13:35:03;;;;;;;4.50;2.65;;;;;;;;;;5059139;28;20037;-75
2023/04/30 13:37:30;;;;;;;4.90;2.65;;;;;;;;;;5063876;28;20124;-76
2023/04/30 13:39:56;;;;;;;5.03;2.90;;;;;;;;;;5069820;28;20076;-81
2023/04/30 13:42:25;;;;;;;3.75;2.40;;;;;;;;;;5068553;28;20044;-78
2023/04/30 13:44:51;;;;;;;4.68;2.65;;;;;;;;;;5056319;28;20120;-76
2023/04/30 13:47:18;;;;;;;6.00;3.08;;;;;;;;;;5073324;28;20135;-75
2023/04/30 13:49:44;;;;;;;6.45;3.45;;;;;;;;;;5070589;28;20517;-75
2023/04/30 13:52:10;;;;;;;5.90;3.13;;;;;;;;;;5065014;28;20119;-79
2023/04/30 13:54:37;;;;;;;7.22;3.13;;;;;;;;;;5068402;28;20045;-76
2023/04/30 13:57:03;;;;;;;3.97;2.90;;;;;;;;;;5069908;28;20049;-75
2023/04/30 13:59:30;;;;;;;4.75;2.83;;;;;;;;;;5074420;28;20052;-75
2023/04/30 14:01:56;;;;;;;6.30;3.13;;;;;;;;;;5068116;28;20045;-74
2023/04/30 14:04:22;;;;;;;4.60;2.97;;;;;;;;;;5070812;28;20120;-74
2023/04/30 14:06:49;;;;;;;8.68;3.45;;;;;;;;;;5073332;28;20482;-75
2023/04/30 14:09:15;;;;;;;5.57;3.10;;;;;;;;;;5075803;28;20119;-75
2023/04/30 14:11:41;;;;;;;4.22;2.60;;;;;;;;;;5076417;28;20036;-75
2023/04/30 14:14:08;;;;;;;4.57;2.85;;;;;;;;;;5076958;28;20094;-74
2023/04/30 14:16:34;;;;;;;5.78;3.10;;;;;;;;;;5076024;28;20083;-75
2023/04/30 14:19:00;;;;;;;6.90;3.25;;;;;;;;;;5073819;28;20110;-75
2023/04/30 14:21:27;;;;;;;5.90;2.70;;;;;;;;;;5061359;28;20045;-75
2023/04/30 14:23:53;;;;;;;5.13;2.63;;;;;;;;;;5064080;28;20080;-76
2023/04/30 14:26:20;;;;;;;3.70;2.50;;;;;;;;;;5070580;28;20537;-76
2023/04/30 14:28:46;;;;;;;3.25;2.42;;;;;;;;;;5076884;28;20050;-75
2023/04/30 14:31:12;;;;;;;4.53;2.60;;;;;;;;;;5068100;28;20495;-75
2023/04/30 14:33:38;;;;;;;4.63;2.67;;;;;;;;;;5073127;28;20116;-76
2023/04/30 14:36:05;;;;;;;5.55;2.95;;;;;;;;;;5069827;28;20048;-79
2023/04/30 14:38:31;;;;;;;5.28;2.58;;;;;;;;;;5071950;28;20502;-79
2023/04/30 14:40:57;;;;;;;5.25;2.60;;;;;;;;;;5074975;28;20485;-76